Latest Weather Observations for Sheffield

IDT60801

Issued at 6:01 pm EST Sunday 15 September 2019 (issued every 10 minutes, with the page automatically refreshed every 10 minutes)

About weather observations | Map of weather stations | Latest weather observations for TAS | Other Formats
Station Details ID: 091291 Name: SHEFFIELD SCHOOL FARM Lat: -41.39 Lon: 146.32 Height: 294.2 m
Data from the previous 72 hours. | See also: Recent months at Sheffield
Date/Time
EST
Temp
°C
App
Temp
°C
Dew
Point
°C
Rel
Hum
%
Delta-T
°C
Wind Press
QNH
hPa
Press
MSL
hPa
Rain since
9am
mm
Dir  Spd
km/h
Gust
km/h
Spd
kts
Gust
kts
15/05:30pm 10.2 4.4 -1.8 43 4.7 WNW 19 22 10 12 1008.1 1008.5 0.0
15/05:00pm 11.2 5.2 -2.9 37 5.5 WNW 19 24 10 13 1007.9 1008.3 0.0
15/04:30pm 12.9 7.9 -1.4 37 5.8 WNW 15 20 8 11 1008.1 1008.5 0.0
15/04:00pm 12.3 5.3 -3.9 32 6.2 WNW 24 33 13 18 1008.4 1008.7 0.0
15/03:30pm 13.0 8.7 0.7 43 5.3 W 13 22 7 12 1008.1 1008.5 0.0
15/03:00pm 13.9 8.1 -0.2 38 6.0 WNW 20 32 11 17 1008.7 1009.0 0.0
15/02:30pm 14.4 7.9 2.9 46 5.2 WNW 26 35 14 19 1008.7 1009.0 0.0
15/02:00pm 14.6 7.1 1.5 41 5.8 WNW 30 43 16 23 1008.9 1009.2 0.0
15/01:30pm 14.7 7.4 2.3 43 5.6 WNW 30 39 16 21 1009.0 1009.3 0.0
15/01:00pm 15.3 9.3 1.1 38 6.3 WNW 22 35 12 19 1009.0 1009.3 0.0
15/12:30pm 15.0 7.5 3.2 45 5.4 WNW 32 43 17 23 1009.1 1009.4 0.0
15/12:00pm 14.9 7.7 2.8 44 5.5 WNW 30 46 16 25 1009.6 1009.9 0.0
15/11:57am 14.8 7.8 1.7 41 5.8 WNW 28 46 15 25 1009.7 1010.0 0.0
15/11:30am 14.6 8.2 0.8 39 6.0 WNW 24 43 13 23 1010.2 1010.5 0.0
15/11:00am 14.2 8.7 2.1 44 5.4 WNW 20 32 11 17 1010.5 1010.9 0.0
15/10:30am 13.4 8.5 2.3 47 4.9 WNW 17 28 9 15 1010.6 1011.0 0.0
15/10:00am 12.4 8.4 3.1 53 4.2 W 13 20 7 11 1010.8 1011.2 0.0
15/09:30am 12.6 8.6 4.8 59 3.6 W 15 24 8 13 1011.1 1011.5 0.0
15/09:00am 12.4 7.7 6.0 65 3.1 W 20 32 11 17 1011.4 1011.8 0.0
15/08:30am 12.7 10.0 7.4 70 2.6 W 11 22 6 12 1011.0 1011.4 0.0
15/08:00am 12.4 8.8 8.5 77 2.0 WNW 17 24 9 13 1011.2 1011.6 0.0
15/07:30am 10.8 9.3 9.2 90 0.8 WNW 7 11 4 6 1011.2 1011.6 0.0
15/07:00am 9.9 7.9 8.8 93 0.5 NW 9 13 5 7 1010.9 1011.3 0.0
15/06:30am 10.1 7.4 8.9 92 0.6 NW 13 19 7 10 1010.9 1011.3 0.0
15/06:00am 9.9 6.8 8.7 92 0.6 WNW 15 20 8 11 1010.7 1011.1 0.0
15/05:30am 9.7 6.2 8.8 94 0.4 NW 17 26 9 14 1010.5 1010.9 0.0
15/05:00am 9.3 5.7 8.4 94 0.4 NW 17 24 9 13 1010.4 1010.7 0.0
15/04:30am 9.6 5.5 8.7 94 0.4 NW 20 26 11 14 1010.6 1011.0 0.0
15/04:00am 9.3 6.4 8.2 93 0.5 NW 13 19 7 10 1010.7 1011.1 0.0
15/03:30am 9.7 5.7 8.3 91 0.7 NW 19 30 10 16 1010.6 1011.0 0.0
15/03:00am 9.2 4.8 7.6 90 0.8 NW 20 28 11 15 1011.1 1011.5 0.0
15/02:30am 9.3 5.1 7.4 88 0.9 NW 19 26 10 14 1011.6 1012.0 0.0
15/02:00am 9.5 5.2 6.9 84 1.2 NW 19 24 10 13 1012.2 1012.5 0.0
15/01:30am 9.5 4.8 6.2 80 1.5 NW 20 28 11 15 1013.0 1013.3 0.0
15/01:00am 9.6 4.8 5.6 76 1.9 NW 20 28 11 15 1013.3 1013.6 0.0
15/12:30am 9.6 4.2 4.4 70 2.3 NW 22 37 12 20 1013.8 1014.2 0.0
15/12:00am 9.1 4.1 3.5 68 2.5 NW 19 24 10 13 1014.1 1014.5 0.0
 
Date/Time
EST
Temp
°C
App
Temp
°C
Dew
Point
°C
Rel
Hum
%
Delta-T
°C
Wind Press
QNH
hPa
Press
MSL
hPa
Rain since
9am
mm
Dir  Spd
km/h
Gust
km/h
Spd
kts
Gust
kts
14/11:30pm 8.4 3.9 4.2 75 1.9 NW 17 22 9 12 1014.8 1015.2 0.0
14/11:00pm 8.9 4.0 4.3 73 2.1 NW 19 24 10 13 1014.9 1015.3 0.0
14/10:30pm 8.7 5.0 4.3 74 2.0 NW 13 19 7 10 1015.3 1015.7 0.0
14/10:00pm 9.2 6.5 3.6 68 2.5 NW 7 11 4 6 1016.0 1016.3 0.0
14/09:30pm 9.4 5.5 3.6 67 2.6 WNW 13 20 7 11 1016.6 1017.0 0.0
14/09:00pm 9.7 4.6 3.9 67 2.6 WNW 20 32 11 17 1017.1 1017.5 0.0
14/08:30pm 9.4 4.7 5.2 75 1.9 NW 19 24 10 13 1017.2 1017.6 0.0
14/08:00pm 9.3 6.7 6.2 81 1.5 NNW 9 15 5 8 1016.8 1017.2 0.0
14/07:30pm 9.3 7.4 6.6 83 1.3 N 6 7 3 4 1017.0 1017.4 0.0
14/07:00pm 9.0 5.7 6.4 84 1.2 NNW 13 19 7 10 1016.9 1017.3 0.0
14/06:30pm 9.9 6.6 6.4 79 1.7 NNW 13 17 7 9 1016.8 1017.2 0.0
14/06:00pm 10.6 6.2 6.7 77 1.9 NNW 19 24 10 13 1017.1 1017.5 0.0
14/05:30pm 11.4 7.5 6.9 74 2.2 NNW 17 22 9 12 1017.2 1017.6 0.0
14/05:00pm 13.2 9.2 6.8 65 3.1 NNW 17 22 9 12 1017.1 1017.5 0.0
14/04:30pm 15.1 11.6 3.3 45 5.4 WNW 11 17 6 9 1017.1 1017.5 0.0
14/04:00pm 15.4 10.7 2.9 43 5.7 WNW 17 24 9 13 1017.3 1017.7 0.0
14/03:30pm 15.3 11.3 4.7 49 5.0 WNW 15 20 8 11 1017.3 1017.7 0.0
14/03:00pm 15.6 11.5 4.3 47 5.3 WNW 15 22 8 12 1017.7 1018.1 0.0
14/02:30pm 15.1 10.5 3.9 47 5.2 WNW 17 24 9 13 1018.1 1018.5 0.0
14/02:00pm 15.5 11.1 4.8 49 5.1 WNW 17 24 9 13 1018.3 1018.7 0.0
14/01:30pm 15.3 11.5 5.8 53 4.6 NW 15 20 8 11 1018.5 1018.9 0.0
14/01:00pm 14.9 10.4 4.3 49 5.0 WNW 17 22 9 12 1018.7 1019.1 0.0
14/12:30pm 14.0 9.6 4.6 53 4.4 WNW 17 26 9 14 1018.8 1019.2 0.0
14/12:00pm 13.6 9.9 4.7 55 4.2 WNW 13 17 7 9 1019.2 1019.6 0.0
14/11:30am 12.9 8.2 3.3 52 4.3 WNW 17 26 9 14 1019.6 1020.0 0.0
14/11:00am 12.7 9.1 4.9 59 3.6 WNW 13 22 7 12 1019.8 1020.2 0.0
14/10:30am 11.9 7.7 3.7 57 3.7 W 15 22 8 12 1019.9 1020.3 0.0
14/10:00am 11.4 6.9 4.2 61 3.3 WSW 17 24 9 13 1020.0 1020.4 0.0
14/09:30am 10.5 5.3 2.6 58 3.4 WSW 19 24 10 13 1020.0 1020.4 0.0
14/09:00am 10.3 6.0 3.1 61 3.2 W 15 20 8 11 1020.0 1020.4 2.4
14/08:30am 9.6 6.0 2.7 62 3.0 SW 11 20 6 11 1019.9 1020.3 2.4
14/08:00am 9.2 5.9 2.5 63 2.9 W 9 15 5 8 1019.6 1020.0 2.4
14/07:30am 8.6 4.5 2.0 63 2.8 WSW 13 24 7 13 1019.2 1019.6 2.4
14/07:00am 8.3 3.8 2.3 66 2.5 WNW 15 28 8 15 1018.7 1019.1 2.4
14/06:30am 7.6 3.9 2.5 70 2.2 NW 11 22 6 12 1018.3 1018.7 2.4
14/06:00am 6.9 2.0 2.2 72 2.0 NW 17 24 9 13 1017.9 1018.3 2.4
14/05:30am 6.2 2.1 2.1 75 1.7 NNW 13 17 7 9 1017.6 1018.0 2.4
14/05:00am 6.4 2.6 1.9 73 1.9 NNW 11 20 6 11 1017.2 1017.6 2.4
14/04:30am 7.5 3.7 1.6 66 2.4 N 11 15 6 8 1016.9 1017.3 2.4
14/04:00am 7.9 3.2 0.9 61 2.9 WNW 15 37 8 20 1016.8 1017.2 2.4
14/03:30am 8.0 2.5 0.5 59 3.0 SSW 19 30 10 16 1016.6 1017.0 2.4
14/03:17am 8.0 2.3 0.7 60 3.0 W 20 44 11 24 1016.2 1016.5 2.4
14/03:00am 8.2 3.9 1.1 61 2.9 WSW 13 22 7 12 1016.4 1016.8 2.4
14/02:30am 7.8 2.9 2.1 67 2.4 WSW 17 32 9 17 1016.2 1016.5 2.4
14/02:00am 7.5 2.7 2.4 70 2.2 W 17 37 9 20 1016.3 1016.7 2.4
14/01:30am 6.5 2.1 2.8 77 1.6 WNW 15 24 8 13 1016.5 1016.9 2.4
14/01:00am 5.8 2.4 2.1 77 1.5 NW 9 22 5 12 1016.5 1016.9 2.4
14/12:30am 6.5 1.2 1.8 72 1.9 W 19 32 10 17 1016.4 1016.8 2.4
14/12:00am 6.8 0.6 2.3 73 1.9 W 24 37 13 20 1016.2 1016.5 2.4
 
Date/Time
EST
Temp
°C
App
Temp
°C
Dew
Point
°C
Rel
Hum
%
Delta-T
°C
Wind Press
QNH
hPa
Press
MSL
hPa
Rain since
9am
mm
Dir  Spd
km/h
Gust
km/h
Spd
kts
Gust
kts
13/11:30pm 6.4 0.6 2.5 76 1.6 W 22 39 12 21 1016.4 1016.8 2.4
13/11:00pm 6.0 1.2 2.8 80 1.3 W 17 22 9 12 1016.3 1016.7 2.4
13/10:30pm 6.0 1.4 3.8 86 0.9 W 17 20 9 11 1016.7 1017.1 2.4
13/10:08pm 6.9 0.6 3.9 81 1.3 WSW 26 54 14 29 1016.6 1017.0 1.6
13/10:05pm 7.5 2.3 3.6 76 1.7 WSW 20 54 11 29 1016.5 1016.9 1.4
13/10:00pm 7.3 3.0 3.5 77 1.6 WSW 15 20 8 11 1016.4 1016.8 1.0
13/09:30pm 7.3 2.9 2.8 73 1.9 WSW 15 24 8 13 1015.7 1016.0 1.0
13/09:00pm 7.3 2.6 3.2 75 1.8 W 17 24 9 13 1015.0 1015.4 1.0
13/08:30pm 7.8 2.1 3.1 72 2.0 W 22 33 12 18 1014.8 1015.2 1.0
13/08:00pm 8.0 1.7 3.8 75 1.8 WSW 26 37 14 20 1014.1 1014.5 1.0
13/07:30pm 8.1 0.8 4.7 79 1.5 WSW 32 52 17 28 1013.7 1014.1 0.8
13/07:12pm 8.5 1.9 4.3 75 1.9 WSW 28 50 15 27 1013.0 1013.3 0.8
13/07:00pm 9.1 2.1 4.3 72 2.2 W 30 43 16 23 1013.0 1013.3 0.6
13/06:30pm 9.8 4.0 4.4 69 2.4 W 24 43 13 23 1012.2 1012.5 0.6
13/06:00pm 9.9 3.6 5.7 75 2.0 W 28 44 15 24 1012.1 1012.4 0.6
13/05:48pm 9.9 3.8 6.6 80 1.6 W 28 56 15 30 1012.0 1012.3 0.6
13/05:30pm 9.8 4.8 7.9 88 0.9 NW 24 33 13 18 1011.6 1012.0 0.2
13/05:00pm 9.6 5.5 7.9 89 0.8 NW 19 30 10 16 1011.6 1012.0 0.2
13/04:30pm 9.5 5.1 7.6 88 0.9 NW 20 30 11 16 1012.1 1012.4 0.0
13/04:00pm 9.4 5.0 7.2 86 1.1 NW 20 28 11 15 1012.7 1013.0 0.0
13/03:30pm 9.4 3.7 6.5 82 1.4 NW 26 35 14 19 1013.1 1013.4 0.0
13/03:00pm 9.9 3.3 5.9 76 1.9 NW 30 43 16 23 1013.4 1013.8 0.0
13/02:30pm 9.7 5.0 6.1 78 1.7 NW 20 28 11 15 1014.0 1014.4 0.0
13/02:00pm 10.6 4.1 4.9 68 2.6 NW 28 39 15 21 1013.6 1014.0 0.0
13/01:30pm 10.8 6.6 5.8 71 2.4 NW 17 26 9 14 1013.9 1014.3 0.0
13/01:00pm 9.8 6.2 4.8 71 2.3 NW 13 20 7 11 1014.9 1015.3 0.0
13/12:30pm 9.8 5.3 4.4 69 2.4 WNW 17 26 9 14 1016.1 1016.4 0.0
13/12:00pm 9.8 3.8 3.3 64 2.9 WNW 24 39 13 21 1016.9 1017.3 0.0
13/11:30am 10.0 5.1 4.0 66 2.7 WNW 19 35 10 19 1017.6 1018.0 0.0
13/11:00am 9.3 3.7 3.7 68 2.5 W 22 35 12 19 1017.8 1018.2 0.0
13/10:30am 9.5 4.6 4.1 69 2.4 WNW 19 26 10 14 1017.7 1018.1 0.0
13/10:00am 8.8 4.9 3.4 69 2.4 NW 13 17 7 9 1018.1 1018.5 0.0
13/09:30am 8.5 3.8 3.1 69 2.3 WNW 17 22 9 12 1018.3 1018.7 0.0
13/09:00am 8.5 3.8 2.9 68 2.4 WNW 17 22 9 12 1018.5 1018.9 0.0
13/08:30am 7.3 2.1 2.6 72 2.0 WNW 19 26 10 14 1018.8 1019.2 0.0
13/08:00am 6.6 2.6 2.7 76 1.6 WNW 13 20 7 11 1018.7 1019.1 0.0
13/07:30am 6.0 2.3 2.3 77 1.5 WNW 11 19 6 10 1018.8 1019.2 0.0
13/07:00am 4.9 0.7 1.9 81 1.2 WNW 13 20 7 11 1019.2 1019.6 0.0
13/06:30am 4.3 1.2 1.5 82 1.1 WNW 7 9 4 5 1018.7 1019.1 0.0
13/06:00am 3.1 -0.1 0.8 85 0.9 NW 7 11 4 6 1018.7 1019.1 0.0
13/05:30am 3.8 0.6 1.0 82 1.1 N 7 11 4 6 1018.5 1018.9 0.0
13/05:00am 4.6 1.4 0.7 76 1.5 NNW 7 9 4 5 1018.4 1018.8 0.0
13/04:30am 5.3 2.3 1.1 74 1.7 WNW 6 9 3 5 1018.5 1018.9 0.0
13/04:00am 4.7 1.5 0.7 75 1.6 WSW 7 13 4 7 1018.2 1018.6 0.0
13/03:30am 5.6 1.6 0.8 71 1.9 W 11 15 6 8 1018.4 1018.8 0.0
13/03:00am 6.0 2.1 1.0 70 2.0 W 11 19 6 10 1018.7 1019.1 0.0
13/02:30am 6.3 2.7 0.4 66 2.3 W 9 17 5 9 1018.6 1019.0 0.0
13/02:00am 5.4 2.3 0.2 69 2.0 E 6 7 3 4 1018.7 1019.1 0.0
13/01:30am 6.3 3.3 0.6 67 2.3 SE 6 13 3 7 1018.5 1018.9 0.0
13/01:00am 6.9 0.8 0.6 64 2.5 SW 22 35 12 19 1018.2 1018.6 0.0
13/12:30am 7.4 -0.2 0.8 63 2.7 WSW 30 41 16 22 1017.8 1018.2 0.0
13/12:00am 6.8 0.5 1.3 68 2.2 WSW 24 33 13 18 1017.9 1018.3 0.0
 
Date/Time
EST
Temp
°C
App
Temp
°C
Dew
Point
°C
Rel
Hum
%
Delta-T
°C
Wind Press
QNH
hPa
Press
MSL
hPa
Rain since
9am
mm
Dir  Spd
km/h
Gust
km/h
Spd
kts
Gust
kts
12/11:30pm 6.6 1.5 0.7 66 2.4 WSW 17 24 9 13 1017.8 1018.2 0.0
12/11:00pm 7.7 2.1 0.9 62 2.8 WSW 20 30 11 16 1017.4 1017.8 0.0
12/10:30pm 7.1 3.8 0.1 61 2.8 SW 7 15 4 8 1017.0 1017.4 0.0
12/10:00pm 7.6 3.6 0.3 60 2.9 SE 11 24 6 13 1017.0 1017.4 0.0
12/09:30pm 7.5 3.0 0.0 59 3.0 NNE 13 17 7 9 1016.7 1017.1 0.0
12/09:00pm 8.1 4.0 0.1 57 3.2 ENE 11 24 6 13 1016.3 1016.7 0.0
12/08:30pm 8.0 1.2 0.7 60 3.0 SSW 26 44 14 24 1015.8 1016.1 0.0
12/08:00pm 8.6 2.6 1.1 59 3.1 W 22 35 12 19 1014.9 1015.3 0.0
12/07:30pm 8.4 2.5 1.6 62 2.8 WNW 22 44 12 24 1014.6 1015.0 0.0
12/07:00pm 8.2 3.6 1.4 62 2.8 WNW 15 32 8 17 1013.8 1014.2 0.0
12/06:30pm 8.5 3.8 0.7 58 3.2 WNW 15 35 8 19 1013.4 1013.8 0.0

Other formats

Comma delimited format used in spreadsheet applications
http://www.bom.gov.au/fwo/IDT60801/IDT60801.94955.axf

JavaScript Object Notation format (JSON) in row-major order
http://www.bom.gov.au/fwo/IDT60801/IDT60801.94955.json

Data quality

Most of these data are generated automatically and are frequently updated. Quality checks on data are not normally performed. It is possible for incorrect values to appear. Refer to information at About Latest Weather Observations and please check the disclaimer before using these data.